Accueil
METAR-TAF:

METAR-TAF

Aéroports :

Anatom, Vanuatu

latitude: 20-14-57S, longitude: 169-46-17E, altitude: 2 m

Observation

Le bulletin a été fait il y a 2 heures et 17 minutes, à 03:00 UTC
Vent calme
Température 34°C
Humidité 63%
Pression 1007 hPa
Visibilité 10 km ou plus
Quelques nuages à une hauteur de 2500 ft

METAR: NVVA 230300Z 00000KT 9999 FEW025 34/26 Q1007 RMK NIL

Heure: 16:17 (05:17 UTC)

Prévision

Le bulletin a été fait il y a 6 heures et 57 minutes, à 22:20 UTC
Prévision valable du 23 à 00 UTC au 23 à 24 UTC
Vent 2 kt de direction variable
Visibilité 10 km ou plus
Nuages épars à une hauteur de 2000 ft

TAF: NVVA 222220Z 2300/2324 VRB02KT 9999 SCT020

Observations et prévisions météorologiques de plus de 4000 aéroports (messages METAR et TAF).

Les stations disponibles sont représentées par des disques jaunes et rouges sur la carte.

Passer la souris dessus pour voir le nom de la station.

Cliquer dessus pour voir les observations et prévisions météorologiques.

Pour changer de carte: cliquez sur les boutons verts avec une croix noire pour zoomer, sur le bouton vert avec un tiret pour effectuer un zoom arrière, ou sur les flèches vertes pour les cartes adjacentes.


METAR-TAF: